Tiempo atmosférico en la estación meteorológica de Liceras, Soria (1150 m.)



Fecha
DESCASC
Temp. máxima en grados centígrados (hora)
DESCASC
Temp. mínima en grados centígrados (hora)
DESCASC
Temp. media en grados centígrados
DESCASC
Racha de viento máxima en m/sg (hora)
DESCASC
Velocidad máxima media en intervalos de 10 minutos(hora)
DESCASC
Precipitaciones diarias en mm
DESCASC
Precipitaciones de 00:00 a 06:00 en mm
DESCASC
Precipitaciones de 06:00 a 12:00 en mm
DESCASC
Precipitaciones de 12:00 a 18:00 en mm
DESCASC
Precipitaciones de 18:00 a 24:00 en mm
DESCASC
14-02-2019 15.7 (14:50) 3.7 (23:40) 9.7 16.11 (10:40) 11.11 (10:40) 0 0 0 0 0
13-02-2019 15.7 (12:00) 0.8 (05:20) 8.2 9.17 (23:20) 6.39 (23:59) 0 0 0 0 0
12-02-2019 13.9 (15:30) -2.9 (06:20) 5.5 7.22 (13:10) 5 (12:00) 0 0 0 0 0
11-02-2019 7.6 (17:10) -1.6 (08:30) 3 8.06 (03:10) 5.83 (03:10) 0 0 0 0 0
10-02-2019 10.1 (13:30) 3.7 (00:00) 6.9 18.06 (11:40) 13.61 (11:40) 0 0 0 0 0
09-02-2019 11.2 (16:30) 2.7 (00:00) 6.9 9.44 (22:20) 6.67 (23:10) 0 0 0 0 0
08-02-2019 12.5 (15:30) -1.7 (-00:0) 5.4 8.61 (15:50) 6.11 (15:50) 0 0 0 0 0
07-02-2019 9.4 (16:00) 1.4 (00:00) 5.4 9.72 (03:50) 6.67 (09:30) 0 0 0 0 0
06-02-2019 13.5 (12:30) 1.5 (07:50) 7.5 11.39 (16:00) 7.22 (16:10) 0 0 0 0 0
05-02-2019 10.7 (13:20) 0.3 (07:40) 5.5 6.67 (14:10) 4.72 (14:10) 0 0 0 0 0
04-02-2019 6.5 (16:20) -4 (-00:0) 1.3 7.22 (00:40) 5.56 (02:30) 0 0 0 0 0
03-02-2019 1 (17:00) -4.1 (-00:0) -1.5 13.89 (12:30) 10.28 (12:30) 0.2 0 0 0.2 0
02-02-2019 -0.2 (16:40) -2.4 (-00:0) -1.3 17.78 (02:10) 12.5 (01:30) 0.2 0 0 0.2 0
01-02-2019 7.4 (00:30) -0.6 (-00:0) 3.4 21.67 (15:20) 14.44 (02:40) 8.4 8 0 0.4 0
31-01-2019 10.5 (15:10) 4.9 (00:00) 7.7 20 (09:00) 13.61 (06:20) 4.6 1.8 1 0.4 1.4
30-01-2019 5.2 (23:20) -1.2 (-00:0) 2 16.67 (22:40) 11.39 (23:10) 3.2 0 0 0 3.2
29-01-2019 4.4 (16:30) -0.6 (-00:0) 1.9 19.44 (16:40) 13.06 (16:40) 0.2 0 0 0.2 0
28-01-2019 7.6 (16:00) -0.6 (-00:0) 3.5 18.89 (14:10) 13.33 (14:20) 0 0 0 0 0
27-01-2019 6 (13:10) -0.2 (00:00) 2.9 15.83 (15:50) 11.39 (15:40) 0 0 0 0 0
26-01-2019 12 (15:10) 0.5 (00:00) 6.3 9.72 (16:00) 7.5 (22:30) 0 0 0 0 0
25-01-2019 7.9 (15:10) 1.3 (00:00) 4.6 14.44 (04:30) 10.83 (04:40) 0 0 0 0 0
24-01-2019 6 (16:00) 3.4 (00:00) 4.7 14.17 (12:00) 10.56 (02:40) 3.6 0.4 3 0.2 0
23-01-2019 6.6 (15:20) 1.2 (00:00) 3.9 19.17 (12:00) 13.06 (11:10) 0.8 0.2 0.2 0.4 0
22-01-2019 1.2 (23:30) -1.6 (-00:0) -0.2 14.72 (23:59) 9.44 (12:50) 1.2 0 0 0.8 0.4
21-01-2019 3.9 (15:20) -1.5 (-00:0) 1.2 12.78 (16:00) 7.5 (15:30) 0 0 0 0 0
20-01-2019 4.3 (00:00) -0.4 (00:00) 2 10.83 (15:10) 8.33 (17:00) 11.8 11.8 0 0 0
19-01-2019 4.4 (21:10) -0.7 (-00:0) 1.9 12.22 (22:10) 7.78 (22:10) 17.6 0 0 5.6 12

Gráficas

Temp. máximas Temp. mínimas Temp. medias Precipitaciones Rachas de viento máximas Velocidades máximas media en intervalos de 10 minutos

Datos horarios

Fecha y hora oficial Temperatura (ºC) Velocidad del viento (km/h) Dirección del viento Racha (km/h) Dirección de racha Precipitación (mm) Presión (hPa) Tendencia (hPa) Humedad (%)
2019-02-17 23:00:00 7.4 11 Sur 28 Sudeste 0 -- -- 37
2019-02-17 22:00:00 8 15 Sur 28 Sur 0 -- -- 34
2019-02-17 21:00:00 8.1 14 Sur 26 Sur 0 -- -- 34
2019-02-17 20:00:00 7.8 9 Sur 32 Sur 0 -- -- 35
2019-02-17 19:00:00 8.4 17 Sur 39 Sur 0 -- -- 32
2019-02-17 18:00:00 10.1 28 Sur 45 Sudoeste 0 -- -- 28
2019-02-17 17:00:00 11.9 11 Sudoeste 38 Sudeste 0 -- -- 26
2019-02-17 16:00:00 11.8 26 Sur 46 Sudeste 0 -- -- 25
2019-02-17 15:00:00 12.1 27 Sur 43 Sur 0 -- -- 22
2019-02-17 14:00:00 12.4 23 Sur 39 Sur 0 -- -- 24
2019-02-17 13:00:00 13.3 11 Sur 40 Sudeste 0 -- -- 21
2019-02-17 12:00:00 10.8 33 Sur 49 Sur 0 -- -- 26
2019-02-17 11:00:00 9.9 24 Sur 37 Sur 0 -- -- 25
2019-02-17 10:00:00 9.4 17 Sudeste 30 Sudeste 0 -- -- 24
2019-02-17 09:00:00 7 17 Sudeste 23 Sudeste 0 -- -- 27
2019-02-17 08:00:00 5.7 17 Sur 30 Sur 0 -- -- 26
2019-02-17 07:00:00 5.7 17 Sur 36 Sur 0 -- -- 30
2019-02-17 06:00:00 6.4 23 Sudoeste 36 Sudoeste 0 -- -- 28
2019-02-17 05:00:00 5.6 15 Sur 28 Sur 0 -- -- 32
2019-02-17 04:00:00 5.8 15 Sur 32 Sudoeste 0 -- -- 35
2019-02-17 03:00:00 8 26 Sudoeste 40 Sudoeste 0 -- -- 27
2019-02-17 02:00:00 8.6 22 Sudoeste 45 Sur 0 -- -- 27
2019-02-17 01:00:00 7.3 26 Sur 46 Sur 0 -- -- 37
2019-02-17 00:00:00 7.5 16 Sur 32 Sur 0 -- -- 37
2019-02-16 23:00:00 8.4 19 Sur 40 Sur 0 -- -- 36
2019-02-16 22:00:00 8.9 24 Sur 46 Sur 0 -- -- 39
2019-02-16 21:00:00 9 15 Sur 34 Sudeste 0 -- -- 37
2019-02-16 20:00:00 8.7 10 Sur 28 Sudeste 0 -- -- 37
2019-02-16 19:00:00 9.6 16 Sur 33 Sur 0 -- -- 35
2019-02-16 18:00:00 11.5 26 Sudeste 35 Sur 0 -- -- 33
2019-02-16 17:00:00 12.5 24 Sur 36 Sudeste 0 -- -- 31
2019-02-16 16:00:00 13.1 22 Sudeste 37 Sudeste 0 -- -- 32
2019-02-16 15:00:00 13.4 19 Sur 33 Sudeste 0 -- -- 38
2019-02-16 14:00:00 14.4 12 Sur 29 Sudoeste 0 -- -- 40
2019-02-16 13:00:00 14 20 Sudoeste 31 Sudoeste 0 -- -- 38
2019-02-16 12:00:00 13.1 17 Sur 32 Sur 0 -- -- 46
2019-02-16 11:00:00 11.6 20 Sur 38 Sur 0 -- -- 47
2019-02-16 10:00:00 10.1 21 Sudeste 39 Sudeste 0 -- -- 49
2019-02-16 09:00:00 8.8 13 Sur 26 Sudeste 0 -- -- 53
2019-02-16 08:00:00 6.8 12 Sur 32 Sudoeste 0 -- -- 60
2019-02-16 07:00:00 2.7 5 Este 20 Sur 0 -- -- 75
2019-02-16 06:00:00 5.8 13 Sudeste 22 Sudeste 0 -- -- 59
2019-02-16 05:00:00 3 8 Sudeste 16 Sudeste 0 -- -- 65
2019-02-16 04:00:00 1.9 9 Sudeste 17 Sudeste 0 -- -- 68
2019-02-16 03:00:00 1.5 9 Sudeste 15 Sudeste 0 -- -- 68
2019-02-16 02:00:00 1.9 11 Este 17 Este 0 -- -- 66
2019-02-16 01:00:00 2.5 14 Sudeste 17 Sudeste 0 -- -- 63
2019-02-16 00:00:00 2.6 10 Este 18 Sudeste 0 -- -- 59
2019-02-15 23:00:00 2.1 13 Sudeste 16 Este 0 -- -- 60
2019-02-15 22:00:00 3.6 7 Sudeste 14 Este 0 -- -- 57
2019-02-15 21:00:00 5.5 9 Sudeste 15 Este 0 -- -- 54
2019-02-15 20:00:00 6.7 10 Sudeste 20 Este 0 -- -- 53
2019-02-15 19:00:00 9.8 8 Sudeste 15 Este 0 -- -- 38
2019-02-15 18:00:00 14 8 Nordeste 15 Nordeste 0 -- -- 35
2019-02-15 17:00:00 14.9 9 Nordeste 15 Nordeste 0 -- -- 30
2019-02-15 16:00:00 15.2 8 Norte 17 Nordeste 0 -- -- 31
2019-02-15 15:00:00 15.2 7 Nordeste 22 Nordeste 0 -- -- 31
2019-02-15 14:00:00 14.9 10 Nordeste 14 Nordeste 0 -- -- 29
2019-02-15 13:00:00 15.5 6 Este 16 Sudeste 0 -- -- 29
2019-02-15 12:00:00 15.2 5 Sudeste 12 Sudeste 0 -- -- 31
2019-02-15 11:00:00 13.2 5 Sudeste 8 Sudeste 0 -- -- 31
2019-02-15 10:00:00 12.3 0 Calma 4 Este 0 -- -- 37
2019-02-15 09:00:00 4.2 0 Calma 9 Sudeste 0 -- -- 56
2019-02-15 08:00:00 1.3 4 Sudeste 9 Sudeste 0 -- -- 61
2019-02-15 07:00:00 2.6 5 Sudeste 10 Sudeste 0 -- -- 57
2019-02-15 06:00:00 1.9 2 Sudeste 6 Sudeste 0 -- -- 64
2019-02-15 05:00:00 2.9 4 Sudeste 7 Sudeste 0 -- -- 60
2019-02-15 04:00:00 2.8 0 Calma 8 Sudeste 0 -- -- 60
2019-02-15 03:00:00 4.3 6 Sudeste 10 Sudeste 0 -- -- 56
2019-02-15 02:00:00 3.9 8 Sudeste 13 Sudeste 0 -- -- 59
2019-02-15 01:00:00 3.3 11 Sudeste 15 Sudeste 0 -- -- 60
2019-02-15 00:00:00 4 11 Sudeste 18 Sudeste 0 -- -- 55
2019-02-14 23:00:00 6.1 11 Sur 19 Sur 0 -- -- 45
2019-02-14 22:00:00 4.8 12 Sudeste 23 Sudoeste 0 -- -- 50
2019-02-14 21:00:00 7.8 13 Sur 32 Sur 0 -- -- 36
2019-02-14 20:00:00 8.9 20 Sur 38 Sur 0 -- -- 33
2019-02-14 19:00:00 9.4 14 Sur 28 Sur 0 -- -- 31
2019-02-14 18:00:00 13.1 17 Sur 33 Sur 0 -- -- 23
2019-02-14 17:00:00 14.5 18 Sur 38 Sur 0 -- -- 15
2019-02-14 16:00:00 14.9 22 Sur 41 Sur 0 -- -- 15
2019-02-14 15:00:00 15.3 21 Sur 34 Sur 0 -- -- 15
2019-02-14 14:00:00 15.2 16 Sur 30 Sur 0 -- -- 15
2019-02-14 13:00:00 14.9 9 Sur 31 Sudeste 0 -- -- 16
2019-02-14 12:00:00 13.2 14 Sur 50 Sur 0 -- -- 17
2019-02-14 11:00:00 11 32 Sur 58 Sur 0 -- -- 16
2019-02-14 10:00:00 9.5 21 Sur 49 Sudeste 0 -- -- 16
2019-02-14 09:00:00 7.6 22 Sudeste 41 Sudeste 0 -- -- 22
2019-02-14 08:00:00 6.8 18 Sudeste 35 Sudeste 0 -- -- 32
2019-02-14 07:00:00 7.5 20 Sur 53 Sur 0 -- -- 36
2019-02-14 06:00:00 8.7 34 Sur 50 Sur 0 -- -- 28
2019-02-14 05:00:00 7.9 22 Sur 40 Sur 0 -- -- 34
2019-02-14 04:00:00 7.5 18 Sur 35 Sur 0 -- -- 39
2019-02-14 03:00:00 5.8 7 Sur 27 Sudeste 0 -- -- 50
2019-02-14 02:00:00 6.9 13 Sur 28 Sur 0 -- -- 51
2019-02-14 01:00:00 7.7 15 Sur 32 Sur 0 -- -- 46
2019-02-14 00:00:00 8.1 23 Sur 33 Sur 0 -- -- 44
2019-02-13 23:00:00 7.9 19 Sur 25 Sur 0 -- -- 44
2019-02-13 22:00:00 7.3 14 Sur 21 Sur 0 -- -- 45
2019-02-13 21:00:00 7.6 9 Sur 28 Sur 0 -- -- 50
2019-02-13 20:00:00 8.7 14 Sur 31 Sur 0 -- -- 47
2019-02-13 19:00:00 10 19 Sur 26 Sur 0 -- -- 43
2019-02-13 18:00:00 13.4 14 Sur 22 Sur 0 -- -- 38
2019-02-13 17:00:00 14.7 12 Sur 27 Sudeste 0 -- -- 36
2019-02-13 16:00:00 14.6 17 Sudeste 25 Sudeste 0 -- -- 36
2019-02-13 15:00:00 14.2 15 Sudeste 24 Sudeste 0 -- -- 36
2019-02-13 14:00:00 13.4 8 Este 15 Sudeste 0 -- -- 35
2019-02-13 13:00:00 12.8 9 Nordeste 13 Nordeste 0 -- -- 37
2019-02-13 12:00:00 15.7 2 Sur 5 Noroeste 0 -- -- 30
2019-02-13 11:00:00 13.5 0 Calma 6 Sudoeste 0 -- -- 34
2019-02-13 10:00:00 9.5 2 Sur 5 Sur 0 -- -- 45
2019-02-13 09:00:00 3.8 0 Calma 8 Sur 0 -- -- 58
2019-02-13 08:00:00 2.1 4 Sudeste 8 Sudeste 0 -- -- 61
2019-02-13 07:00:00 1 4 Sudeste 9 Sur 0 -- -- 66
2019-02-13 06:00:00 1.9 4 Sudeste 7 Sudeste 0 -- -- 63
2019-02-13 05:00:00 1.8 2 Sudeste 9 Sur 0 -- -- 64
2019-02-13 04:00:00 2.7 5 Sur 10 Sur 0 -- -- 60
2019-02-13 03:00:00 2.3 4 Sur 13 Sudoeste 0 -- -- 64
2019-02-13 02:00:00 2.2 3 Sudeste 10 Sudoeste 0 -- -- 65
2019-02-13 01:00:00 3.7 3 Sudeste 12 Sudoeste 0 -- -- 61
2019-02-13 00:00:00 3.2 11 Sudoeste 16 Sur 0 -- -- 64
2019-02-12 23:00:00 3.4 9 Sudoeste 17 Sudoeste 0 -- -- 66
2019-02-12 22:00:00 5 9 Sudoeste 12 Sudoeste 0 -- -- 58
2019-02-12 21:00:00 4.4 8 Sudoeste 15 Sudoeste 0 -- -- 62
2019-02-12 20:00:00 6.4 12 Sudoeste 18 Sur 0 -- -- 53
2019-02-12 19:00:00 7.9 13 Sudoeste 17 Sur 0 -- -- 51
2019-02-12 18:00:00 11.2 9 Sudeste 16 Sudeste 0 -- -- 45
2019-02-12 17:00:00 12.7 8 Sur 19 Sudoeste 0 -- -- 36
2019-02-12 16:00:00 13.1 9 Sur 19 Sudeste 0 -- -- 31
2019-02-12 15:00:00 12.8 13 Sudeste 22 Sudeste 0 -- -- 26
2019-02-12 14:00:00 12.1 14 Sudeste 26 Sudeste 0 -- -- 23
2019-02-12 13:00:00 12 14 Sudeste 24 Este 0 -- -- 33
2019-02-12 12:00:00 9.9 18 Sudeste 24 Sudeste 0 -- -- 36
2019-02-12 11:00:00 6 15 Sudeste 20 Sudeste 0 -- -- 63
2019-02-12 10:00:00 2.5 8 Sudeste 14 Sudeste 0 -- -- 77
2019-02-12 09:00:00 -0.7 9 Sudeste 13 Sudeste 0 -- -- 82
2019-02-12 08:00:00 -2.7 0 Calma 8 Sur 0 -- -- 84
2019-02-12 07:00:00 -2.6 0 Calma 5 Oeste 0 -- -- 85
2019-02-12 06:00:00 -2.1 2 Sudoeste 9 Sur 0 -- -- 89
2019-02-12 05:00:00 -1.9 6 Sudeste 10 Sudeste 0 -- -- 85
2019-02-12 04:00:00 -1.5 7 Sudeste 13 Sudeste 0 -- -- 87
2019-02-12 03:00:00 -1.8 6 Sudeste 10 Sur 0 -- -- 91
2019-02-12 02:00:00 -1.7 0 Calma 15 Sudeste 0 -- -- 88
2019-02-12 01:00:00 -1 14 Sudeste 18 Sur 0 -- -- 88
2019-02-12 00:00:00 -0.9 6 Sudeste 18 Sur 0 -- -- 88
2019-02-11 23:00:00 0.4 13 Sur 16 Sur 0 -- -- 84
2019-02-11 22:00:00 -0.1 9 Sudeste 19 Sudeste 0 -- -- 85
2019-02-11 21:00:00 1.3 10 Sudeste 15 Sudeste 0 -- -- 80
2019-02-11 20:00:00 2.5 7 Nordeste 12 Norte 0 -- -- 72
2019-02-11 19:00:00 3.4 6 Norte 15 Norte 0 -- -- 71
2019-02-11 18:00:00 7.1 10 Norte 18 Norte 0 -- -- 57
2019-02-11 17:00:00 7.3 12 Norte 22 Nordeste 0 -- -- 54
2019-02-11 16:00:00 7.1 14 Nordeste 25 Norte 0 -- -- 56
2019-02-11 15:00:00 6.7 11 Norte 20 Norte 0 -- -- 57
2019-02-11 14:00:00 6.7 7 Norte 17 Noroeste 0 -- -- 53
2019-02-11 13:00:00 6.6 7 Norte 12 Norte 0 -- -- 60
2019-02-11 12:00:00 5.8 5 Nordeste 10 Noroeste 0 -- -- 65
2019-02-11 11:00:00 4.6 6 Noroeste 10 Noroeste 0 -- -- 65
2019-02-11 10:00:00 3.1 4 Norte 9 Noroeste 0 -- -- 75
2019-02-11 09:00:00 0.2 2 Norte 13 Noroeste 0 -- -- 95
2019-02-11 08:00:00 -0.9 15 Noroeste 19 Noroeste 0 -- -- 97
2019-02-11 07:00:00 -0.5 11 Noroeste 19 Noroeste 0 -- -- 97
2019-02-11 06:00:00 0.6 14 Oeste 20 Oeste 0 -- -- 97
2019-02-11 05:00:00 1.2 15 Noroeste 24 Oeste 0 -- -- 96
2019-02-11 04:00:00 1.9 19 Noroeste 29 Noroeste 0 -- -- 94
2019-02-11 03:00:00 3.2 18 Noroeste 25 Noroeste 0 -- -- 86
2019-02-11 02:00:00 3.2 12 Oeste 21 Oeste 0 -- -- 88
2019-02-11 01:00:00 3.9 18 Noroeste 25 Noroeste 0 -- -- 83
2019-02-11 00:00:00 4.5 15 Noroeste 32 Noroeste 0 -- -- 82
2019-02-10 23:00:00 5.4 22 Noroeste 41 Noroeste 0 -- -- 83
2019-02-10 22:00:00 6.8 29 Oeste 41 Oeste 0 -- -- 92
2019-02-10 21:00:00 6.8 27 Oeste 40 Oeste 0 -- -- 93
2019-02-10 20:00:00 6.9 28 Oeste 42 Oeste 0 -- -- 92
2019-02-10 19:00:00 7.3 30 Noroeste 47 Noroeste 0 -- -- 91
2019-02-10 18:00:00 8.5 32 Noroeste 49 Noroeste 0 -- -- 87
2019-02-10 17:00:00 9.3 36 Oeste 55 Oeste 0 -- -- 79
2019-02-10 16:00:00 9.1 39 Oeste 58 Noroeste 0 -- -- 78
2019-02-10 15:00:00 9.2 33 Oeste 61 Oeste 0 -- -- 77
2019-02-10 14:00:00 9.2 40 Oeste 62 Oeste 0 -- -- 74
2019-02-10 13:00:00 9 42 Oeste 61 Oeste 0 -- -- 74
2019-02-10 12:00:00 7.5 40 Oeste 65 Oeste 0 -- -- 78
2019-02-10 11:00:00 7.3 38 Oeste 52 Oeste 0 -- -- 76
2019-02-10 10:00:00 7.3 32 Oeste 57 Oeste 0 -- -- 75
2019-02-10 09:00:00 6.2 31 Oeste 46 Oeste 0 -- -- 75
2019-02-10 08:00:00 5.4 29 Oeste 54 Oeste 0 -- -- 78
2019-02-10 07:00:00 5.2 26 Oeste 40 Oeste 0 -- -- 74
2019-02-10 06:00:00 4.9 26 Oeste 39 Oeste 0 -- -- 78
2019-02-10 05:00:00 4.9 24 Oeste 39 Oeste 0 -- -- 77
2019-02-10 04:00:00 4.7 25 Oeste 42 Oeste 0 -- -- 77
2019-02-10 03:00:00 3.9 18 Oeste 32 Oeste 0 -- -- 82
2019-02-10 02:00:00 3.9 17 Oeste 31 Oeste 0 -- -- 83
2019-02-10 01:00:00 4.2 18 Oeste 30 Oeste 0 -- -- 83
2019-02-10 00:00:00 4.8 17 Oeste 34 Oeste 0 -- -- 81
2019-02-09 23:00:00 5.4 24 Oeste 34 Oeste 0 -- -- 78
2019-02-09 22:00:00 6.2 14 Oeste 24 Oeste 0 -- -- 72
2019-02-09 21:00:00 5.3 5 Sudoeste 15 Sudoeste 0 -- -- 77
2019-02-09 20:00:00 5.7 10 Sudoeste 15 Sudoeste 0 -- -- 75
2019-02-09 19:00:00 6.7 7 Sudoeste 17 Sur 0 -- -- 71
2019-02-09 18:00:00 9.8 6 Noroeste 13 Noroeste 0 -- -- 61
2019-02-09 17:00:00 10.5 13 Noroeste 18 Noroeste 0 -- -- 56
2019-02-09 16:00:00 10.7 11 Oeste 17 Noroeste 0 -- -- 62
2019-02-09 15:00:00 10.5 6 Noroeste 17 Norte 0 -- -- 60
2019-02-09 14:00:00 9.9 11 Norte 18 Norte 0 -- -- 63
2019-02-09 13:00:00 10.4 4 Norte 11 Norte 0 -- -- 60
2019-02-09 12:00:00 8.8 6 Norte 23 Noroeste 0 -- -- 63
2019-02-09 11:00:00 7 10 Noroeste 19 Noroeste 0 -- -- 72
2019-02-09 10:00:00 5.3 9 Noroeste 15 Noroeste 0 -- -- 82
2019-02-09 09:00:00 4.2 7 Noroeste 15 Noroeste 0 -- -- 88
2019-02-09 08:00:00 4.1 7 Noroeste 23 Noroeste 0 -- -- 88
2019-02-09 07:00:00 3.8 11 Noroeste 18 Oeste 0 -- -- 92
2019-02-09 06:00:00 3.5 11 Noroeste 19 Noroeste 0 -- -- 94
2019-02-09 05:00:00 3.5 15 Noroeste 23 Noroeste 0 -- -- 94
2019-02-09 04:00:00 3.6 13 Noroeste 22 Oeste 0 -- -- 92
2019-02-09 03:00:00 3 8 Noroeste 22 Oeste 0 -- -- 94
2019-02-09 02:00:00 2.7 7 Noroeste 26 Oeste 0 -- -- 92
2019-02-09 01:00:00 4.1 17 Oeste 27 Oeste 0 -- -- 88
2019-02-09 00:00:00 4.6 13 Noroeste 27 Oeste 0 -- -- 84
2019-02-08 23:00:00 5.3 14 Oeste 22 Oeste 0 -- -- 84
2019-02-08 22:00:00 5.4 13 Oeste 24 Oeste 0 -- -- 77
2019-02-08 21:00:00 5.9 3 Oeste 14 Oeste 0 -- -- 71
2019-02-08 20:00:00 5.2 12 Noroeste 17 Noroeste 0 -- -- 72
2019-02-08 19:00:00 6.1 9 Noroeste 15 Noroeste 0 -- -- 65
2019-02-08 18:00:00 10.3 11 Noroeste 23 Noroeste 0 -- -- 53
2019-02-08 17:00:00 11.3 16 Noroeste 30 Noroeste 0 -- -- 47
2019-02-08 16:00:00 12.4 20 Noroeste 31 Noroeste 0 -- -- 44
2019-02-08 15:00:00 12.1 18 Noroeste 30 Noroeste 0 -- -- 49
2019-02-08 14:00:00 12.1 17 Noroeste 28 Noroeste 0 -- -- 51
2019-02-08 13:00:00 11.5 19 Noroeste 26 Noroeste 0 -- -- 42
2019-02-08 12:00:00 10.5 10 Oeste 17 Oeste 0 -- -- 50
2019-02-08 11:00:00 11.3 4 Sudoeste 7 Oeste 0 -- -- 54
2019-02-08 10:00:00 6.8 0 Calma 5 Sur 0 -- -- 64
2019-02-08 09:00:00 2.3 0 Calma 6 Noroeste 0 -- -- 76
2019-02-08 08:00:00 -1.1 0 Calma 8 Sudeste 0 -- -- 86
2019-02-08 07:00:00 -0.5 4 Sudeste 9 Sudeste 0 -- -- 86
2019-02-08 06:00:00 0.6 5 Sudeste 10 Sudeste 0 -- -- 85
2019-02-08 05:00:00 -0.6 2 Sudeste 7 Sur 0 -- -- 87
2019-02-08 04:00:00 -0.2 0 Calma 8 Sudeste 0 -- -- 89
2019-02-08 03:00:00 0.1 4 Sudeste 10 Sudeste 0 -- -- 88
2019-02-08 02:00:00 0.7 7 Sur 12 Sur 0 -- -- 88
2019-02-08 01:00:00 0.9 9 Sur 15 Sur 0 -- -- 90
2019-02-08 00:00:00 2 8 Sudoeste 14 Oeste 0 -- -- 86
2019-02-07 23:00:00 1.7 2 Sur 9 Sudeste 0 -- -- 89
2019-02-07 22:00:00 3.1 3 Sur 6 Sudeste 0 -- -- 84
2019-02-07 21:00:00 2.9 0 Calma 13 Noroeste 0 -- -- 89
2019-02-07 20:00:00 4.2 10 Oeste 15 Oeste 0 -- -- 81
2019-02-07 19:00:00 4.8 10 Noroeste 20 Noroeste 0 -- -- 79
2019-02-07 18:00:00 7.9 15 Oeste 26 Noroeste 0 -- -- 67
2019-02-07 17:00:00 8.9 18 Noroeste 29 Noroeste 0 -- -- 61
2019-02-07 16:00:00 9.4 19 Noroeste 31 Noroeste 0 -- -- 58
2019-02-07 15:00:00 9 15 Noroeste 23 Noroeste 0 -- -- 54
2019-02-07 14:00:00 8.5 17 Noroeste 25 Noroeste 0 -- -- 59
2019-02-07 13:00:00 8.2 18 Noroeste 31 Noroeste 0 -- -- 56
2019-02-07 12:00:00 6.9 23 Noroeste 32 Noroeste 0 -- -- 53
2019-02-07 11:00:00 5.7 17 Noroeste 28 Noroeste 0 -- -- 65
2019-02-07 10:00:00 2.9 23 Noroeste 31 Oeste 0 -- -- 74
2019-02-07 09:00:00 2.4 23 Oeste 30 Oeste 0 -- -- 76
2019-02-07 08:00:00 2 19 Noroeste 26 Noroeste 0 -- -- 76
2019-02-07 07:00:00 2.4 18 Noroeste 27 Noroeste 0 -- -- 75
2019-02-07 06:00:00 3.6 21 Noroeste 33 Oeste 0 -- -- 72
2019-02-07 05:00:00 4 17 Noroeste 28 Oeste 0 -- -- 74
2019-02-07 04:00:00 4.7 22 Oeste 35 Oeste 0 -- -- 75
2019-02-07 03:00:00 4.6 17 Noroeste 27 Noroeste 0 -- -- 81
2019-02-07 02:00:00 3.6 9 Noroeste 18 Oeste 0 -- -- 85
2019-02-07 01:00:00 4.6 13 Noroeste 18 Oeste 0 -- -- 83
2019-02-07 00:00:00 6.3 15 Oeste 25 Noroeste 0 -- -- 75
2019-02-06 23:00:00 6.8 16 Oeste 23 Oeste 0 -- -- 73
2019-02-06 22:00:00 6 11 Noroeste 18 Oeste 0 -- -- 74
2019-02-06 21:00:00 6 7 Oeste 12 Oeste 0 -- -- 73
2019-02-06 20:00:00 6 7 Oeste 13 Oeste 0 -- -- 75
2019-02-06 19:00:00 8.5 12 Oeste 25 Oeste 0 -- -- 64
2019-02-06 18:00:00 10.2 23 Noroeste 30 Noroeste 0 -- -- 54
2019-02-06 17:00:00 12.2 18 Noroeste 35 Noroeste 0 -- -- 47
2019-02-06 16:00:00 12.8 24 Noroeste 41 Noroeste 0 -- -- 51
2019-02-06 15:00:00 13.5 11 Noroeste 19 Noroeste 0 -- -- 53
2019-02-06 14:00:00 13.3 5 Norte 14 Norte 0 -- -- 50
2019-02-06 13:00:00 13.1 7 Norte 10 Noroeste 0 -- -- 48
2019-02-06 12:00:00 13.3 0 Calma 4 Este 0 -- -- 51
2019-02-06 11:00:00 10.6 0 Calma 6 Sudeste 0 -- -- 62
2019-02-06 10:00:00 7.6 4 Sudeste 10 Sudoeste 0 -- -- 69
2019-02-06 09:00:00 4 4 Sur 9 Sur 0 -- -- 80
2019-02-06 08:00:00 1.6 0 Calma 12 Sudoeste 0 -- -- 89
2019-02-06 07:00:00 2.9 0 Calma 5 Sur 0 -- -- 84
2019-02-06 06:00:00 2.5 0 Calma 5 Sur 0 -- -- 84
2019-02-06 05:00:00 3.3 3 Sur 10 Oeste 0 -- -- 83
2019-02-06 04:00:00 2.7 8 Sudoeste 12 Oeste 0 -- -- 87
2019-02-06 03:00:00 2.3 4 Sudoeste 10 Oeste 0 -- -- 88
2019-02-06 02:00:00 3.3 0 Calma 4 Sur 0 -- -- 85
2019-02-06 01:00:00 2.3 0 Calma 4 Noroeste 0 -- -- 89
2019-02-06 00:00:00 3.9 2 Sur 7 Sudeste 0 -- -- 83
2019-02-05 23:00:00 2.4 5 Sudoeste 11 Sudoeste 0 -- -- 86
2019-02-05 22:00:00 3 0 Calma 8 Sudoeste 0 -- -- 85
2019-02-05 21:00:00 3.7 0 Calma 8 Oeste 0 -- -- 84
2019-02-05 20:00:00 4.8 4 Noroeste 8 Noroeste 0 -- -- 79
2019-02-05 19:00:00 5.1 8 Norte 14 Norte 0 -- -- 81
2019-02-05 18:00:00 8.6 11 Norte 14 Norte 0 -- -- 69
2019-02-05 17:00:00 10.4 9 Noroeste 20 Norte 0 -- -- 64
2019-02-05 16:00:00 10.6 12 Noroeste 22 Noroeste 0 -- -- 62
2019-02-05 15:00:00 10.2 15 Noroeste 24 Noroeste 0 -- -- 63
2019-02-05 14:00:00 10 16 Noroeste 24 Noroeste 0 -- -- 63
2019-02-05 13:00:00 9.9 12 Noroeste 19 Noroeste 0 -- -- 62
2019-02-05 12:00:00 8.5 13 Noroeste 17 Noroeste 0 -- -- 58
2019-02-05 11:00:00 6.9 11 Oeste 18 Oeste 0 -- -- 56
2019-02-05 10:00:00 5.2 9 Oeste 13 Noroeste 0 -- -- 57
2019-02-05 09:00:00 2.2 3 Noroeste 4 Noroeste 0 -- -- 67
2019-02-05 08:00:00 0.9 0 Calma 10 Noroeste 0 -- -- 72
2019-02-05 07:00:00 1.7 0 Calma 14 Oeste 0 -- -- 76
2019-02-05 06:00:00 2.2 11 Oeste 13 Oeste 0 -- -- 75
2019-02-05 05:00:00 3.1 11 Oeste 13 Oeste 0 -- -- 70
2019-02-05 04:00:00 2.5 4 Oeste 13 Oeste 0 -- -- 73
2019-02-05 03:00:00 1.9 10 Oeste 18 Oeste 0 -- -- 63
2019-02-05 02:00:00 1.8 15 Oeste 18 Oeste 0 -- -- 63
2019-02-05 01:00:00 1.6 14 Oeste 16 Oeste 0 -- -- 63
2019-02-05 00:00:00 0.9 0 Calma 14 Oeste 0 -- -- 65
2019-02-04 23:00:00 1.4 14 Oeste 17 Noroeste 0 -- -- 65
2019-02-04 22:00:00 1.1 2 Noroeste 6 Oeste 0 -- -- 67
2019-02-04 21:00:00 1.6 5 Oeste 9 Oeste 0 -- -- 69
2019-02-04 20:00:00 1.7 6 Noroeste 7 Noroeste 0 -- -- 68
2019-02-04 19:00:00 1.9 3 Nordeste 16 Noroeste 0 -- -- 75
2019-02-04 18:00:00 4.6 13 Noroeste 21 Noroeste 0 -- -- 59
2019-02-04 17:00:00 6 13 Noroeste 20 Noroeste 0 -- -- 49
2019-02-04 16:00:00 5.8 8 Noroeste 17 Noroeste 0 -- -- 51
2019-02-04 15:00:00 4.8 9 Noroeste 14 Noroeste 0 -- -- 55
2019-02-04 14:00:00 5.3 4 Noroeste 8 Norte 0 -- -- 54
2019-02-04 13:00:00 4.6 6 Noroeste 10 Norte 0 -- -- 55
2019-02-04 12:00:00 3.4 8 Norte 17 Noroeste 0 -- -- 59
2019-02-04 11:00:00 2.6 9 Noroeste 15 Oeste 0 -- -- 58
2019-02-04 10:00:00 1 13 Noroeste 19 Noroeste 0 -- -- 63
2019-02-04 09:00:00 -1.3 8 Noroeste 18 Oeste 0 -- -- 69
2019-02-04 08:00:00 -3 13 Oeste 19 Oeste 0 -- -- 75
2019-02-04 07:00:00 -2.9 14 Oeste 16 Oeste 0 -- -- 76
2019-02-04 06:00:00 -3.4 8 Oeste 19 Oeste 0 -- -- 80
2019-02-04 05:00:00 -2.9 14 Oeste 23 Oeste 0 -- -- 80
2019-02-04 04:00:00 -2.6 18 Oeste 23 Noroeste 0 -- -- 80
2019-02-04 03:00:00 -2.6 13 Oeste 25 Noroeste 0 -- -- 80
2019-02-04 02:00:00 -3.2 14 Oeste 19 Oeste 0 -- -- 85
2019-02-04 01:00:00 -3.3 14 Oeste 26 Oeste 0 -- -- 87
2019-02-04 00:00:00 -3 15 Noroeste 28 Noroeste 0 -- -- 89
2019-02-03 23:00:00 -2.8 22 Noroeste 27 Noroeste 0 -- -- 89
2019-02-03 22:00:00 -2.7 22 Noroeste 28 Noroeste 0 -- -- 90
2019-02-03 21:00:00 -2.4 15 Noroeste 31 Noroeste 0 -- -- 88
2019-02-03 20:00:00 -2 20 Noroeste 30 Noroeste 0 -- -- 86
2019-02-03 19:00:00 -1.6 20 Noroeste 30 Norte 0 -- -- 83
2019-02-03 18:00:00 -0.4 24 Norte 33 Noroeste 0 -- -- 77
2019-02-03 17:00:00 1 22 Noroeste 42 Norte 0 -- -- 73
2019-02-03 16:00:00 0.8 33 Norte 46 Norte 0 -- -- 72
2019-02-03 15:00:00 0.7 28 Norte 39 Noroeste 0 -- -- 72
2019-02-03 14:00:00 0.4 24 Norte 44 Norte 0.2 -- -- 77
2019-02-03 13:00:00 -0.1 33 Norte 50 Norte 0 -- -- 74
2019-02-03 12:00:00 -0.7 30 Norte 44 Noroeste 0 -- -- 79
2019-02-03 11:00:00 -1.6 28 Noroeste 41 Noroeste 0 -- -- 84
2019-02-03 10:00:00 -1.9 22 Noroeste 37 Noroeste 0 -- -- 84
2019-02-03 09:00:00 -3.5 25 Noroeste 34 Noroeste 0 -- -- 92
2019-02-03 08:00:00 -3.9 21 Noroeste 35 Noroeste 0 -- -- 94
2019-02-03 07:00:00 -4 26 Noroeste 37 Noroeste 0 -- -- 95
2019-02-03 06:00:00 -3.8 27 Noroeste 39 Noroeste 0 -- -- 94
2019-02-03 05:00:00 -3.4 23 Noroeste 35 Noroeste 0 -- -- 92
2019-02-03 04:00:00 -3 25 Noroeste 42 Norte 0 -- -- 90
2019-02-03 03:00:00 -2.8 30 Noroeste 42 Noroeste 0 -- -- 91
2019-02-03 02:00:00 -2.6 27 Noroeste 43 Noroeste 0 -- -- 89
2019-02-03 01:00:00 -2.3 25 Noroeste 45 Noroeste 0 -- -- 90
2019-02-03 00:00:00 -2 30 Norte 44 Noroeste 0 -- -- 86
2019-02-02 23:00:00 -1.9 25 Noroeste 37 Noroeste 0 -- -- 89
2019-02-02 22:00:00 -1.9 18 Noroeste 30 Noroeste 0 -- -- 90
2019-02-02 21:00:00 -2 21 Noroeste 31 Noroeste 0 -- -- 88
2019-02-02 20:00:00 -1.9 20 Noroeste 28 Norte 0 -- -- 84
2019-02-02 19:00:00 -1.9 24 Norte 44 Norte 0 -- -- 82
2019-02-02 18:00:00 -0.7 26 Norte 46 Norte 0 -- -- 75
2019-02-02 17:00:00 -0.5 36 Norte 56 Norte 0 -- -- 73
2019-02-02 16:00:00 -0.4 34 Norte 59 Norte 0 -- -- 76
2019-02-02 15:00:00 -0.9 35 Norte 46 Norte 0.2 -- -- 79
2019-02-02 14:00:00 -0.6 26 Norte 36 Norte 0 -- -- 82
2019-02-02 13:00:00 -1.2 26 Noroeste 38 Noroeste 0 -- -- 93
2019-02-02 12:00:00 -1.5 26 Noroeste 44 Noroeste 0 -- -- 93
2019-02-02 11:00:00 -1.7 36 Noroeste 53 Noroeste 0 -- -- 93
2019-02-02 10:00:00 -2.2 36 Noroeste 47 Noroeste 0 -- -- 96
2019-02-02 09:00:00 -2.3 32 Noroeste 53 Noroeste 0 -- -- 97
2019-02-02 08:00:00 -2 38 Noroeste 52 Noroeste 0 -- -- 96
2019-02-02 07:00:00 -1.6 36 Noroeste 58 Noroeste 0 -- -- 95
2019-02-02 06:00:00 -1.4 33 Noroeste 55 Noroeste 0 -- -- 95
2019-02-02 05:00:00 -1 36 Noroeste 54 Noroeste 0 -- -- 95
2019-02-02 04:00:00 -1 36 Noroeste 59 Noroeste 0 -- -- 95
2019-02-02 03:00:00 -0.9 41 Noroeste 64 Noroeste 0 -- -- 96
2019-02-02 02:00:00 -0.8 41 Noroeste 62 Noroeste 0 -- -- 97
2019-02-02 01:00:00 -0.6 41 Noroeste 59 Oeste 0 -- -- 98
2019-02-02 00:00:00 -0.6 38 Noroeste 63 Noroeste 0 -- -- 98
2019-02-01 23:00:00 -0.4 45 Noroeste 64 Noroeste 0 -- -- 98
2019-02-01 22:00:00 -0.3 41 Noroeste 58 Noroeste 0 -- -- 98
2019-02-01 21:00:00 -0.5 36 Oeste 59 Oeste 0 -- -- 98
2019-02-01 20:00:00 -0.5 35 Oeste 59 Oeste 0 -- -- 97
2019-02-01 19:00:00 -0.3 38 Oeste 58 Oeste 0 -- -- 97
2019-02-01 18:00:00 -0.2 30 Oeste 52 Noroeste 0 -- -- 98
2019-02-01 17:00:00 -0.2 33 Oeste 54 Noroeste 0 -- -- 97
2019-02-01 16:00:00 -0.1 30 Noroeste 78 Oeste 0.2 -- -- 96
2019-02-01 15:00:00 2 41 Oeste 69 Oeste 0.2 -- -- 88
2019-02-01 14:00:00 4.6 43 Oeste 69 Oeste 0 -- -- 70
2019-02-01 13:00:00 4.5 44 Oeste 71 Oeste 0 -- -- 69
2019-02-01 12:00:00 4.5 35 Oeste 76 Oeste 0 -- -- 69
2019-02-01 11:00:00 2.8 37 Oeste 68 Oeste 0 -- -- 78
2019-02-01 10:00:00 2.5 33 Oeste 55 Oeste 0 -- -- 82
2019-02-01 09:00:00 1.9 38 Oeste 64 Oeste 0 -- -- 85
2019-02-01 08:00:00 2.8 44 Oeste 72 Oeste 0 -- -- 85
2019-02-01 07:00:00 3.1 40 Oeste 59 Oeste 0 -- -- 85
2019-02-01 06:00:00 3.1 37 Oeste 61 Noroeste 0 -- -- 87
2019-02-01 05:00:00 3.5 50 Oeste 67 Oeste 0 -- -- 84
2019-02-01 04:00:00 3.4 39 Oeste 62 Oeste 1.2 -- -- 85
2019-02-01 03:00:00 3.4 40 Noroeste 69 Oeste 2.2 -- -- 91
2019-02-01 02:00:00 5.8 37 Oeste 67 Oeste 2.2 -- -- 84
2019-02-01 01:00:00 6.5 19 Oeste 44 Oeste 2.4 -- -- 94
2019-02-01 00:00:00 7 11 Oeste 64 Oeste 1 -- -- 90
2019-01-31 23:00:00 9.4 43 Oeste 68 Oeste 0 -- -- 72
2019-01-31 22:00:00 8.6 37 Oeste 58 Oeste 0 -- -- 77
2019-01-31 21:00:00 8.2 29 Oeste 47 Oeste 0.2 -- -- 81
2019-01-31 20:00:00 8 31 Oeste 49 Oeste 0.2 -- -- 87
2019-01-31 19:00:00 8.6 27 Oeste 53 Oeste 0 -- -- 83
2019-01-31 18:00:00 9.4 24 Oeste 50 Oeste 0 -- -- 80
2019-01-31 17:00:00 9.4 37 Oeste 57 Oeste 0 -- -- 81
2019-01-31 16:00:00 9 33 Oeste 68 Oeste 0.4 -- -- 89
2019-01-31 15:00:00 10.3 40 Oeste 64 Oeste 0 -- -- 80
2019-01-31 14:00:00 9.2 41 Oeste 64 Oeste 0 -- -- 86
2019-01-31 13:00:00 8.9 37 Oeste 62 Oeste 0 -- -- 86
2019-01-31 12:00:00 7.6 44 Oeste 70 Oeste 0 -- -- 90
2019-01-31 11:00:00 6.5 40 Oeste 68 Oeste 0 -- -- 93
2019-01-31 10:00:00 5.5 40 Oeste 65 Oeste 0.2 -- -- 92
2019-01-31 09:00:00 4.9 39 Oeste 72 Oeste 0.4 -- -- 92
2019-01-31 08:00:00 5.8 42 Oeste 68 Oeste 0.4 -- -- 92
2019-01-31 07:00:00 6.3 45 Oeste 71 Oeste 0 -- -- 94
2019-01-31 06:00:00 6.4 48 Oeste 70 Oeste 0 -- -- 95
2019-01-31 05:00:00 6.3 44 Oeste 68 Oeste 0.2 -- -- 96
2019-01-31 04:00:00 6.3 41 Oeste 71 Noroeste 0.2 -- -- 95
2019-01-31 03:00:00 6.1 41 Oeste 68 Oeste 0.6 -- -- 95
2019-01-31 02:00:00 5.7 40 Oeste 64 Oeste 0.4 -- -- 94
2019-01-31 01:00:00 5.4 35 Oeste 57 Oeste 0.4 -- -- 95
2019-01-31 00:00:00 5.2 36 Oeste 60 Oeste 0.4 -- -- 94
2019-01-30 23:00:00 5 35 Oeste 60 Oeste 0.4 -- -- 93
2019-01-30 22:00:00 4.7 35 Oeste 53 Oeste 1 -- -- 89
2019-01-30 21:00:00 4.1 30 Oeste 53 Oeste 0.8 -- -- 90
2019-01-30 20:00:00 3.6 19 Oeste 37 Oeste 0.4 -- -- 88
2019-01-30 19:00:00 2.5 14 Oeste 27 Oeste 0.2 -- -- 91
2019-01-30 18:00:00 0.4 12 Oeste 43 Oeste 0 -- -- 94
2019-01-30 17:00:00 2.1 31 Oeste 53 Oeste 0 -- -- 75
2019-01-30 16:00:00 4.3 30 Oeste 55 Oeste 0 -- -- 61
2019-01-30 15:00:00 3.7 37 Noroeste 48 Noroeste 0 -- -- 64
2019-01-30 14:00:00 3.2 32 Oeste 45 Oeste 0 -- -- 67
2019-01-30 13:00:00 3.5 28 Noroeste 43 Noroeste 0 -- -- 71
2019-01-30 12:00:00 0.3 28 Noroeste 43 Noroeste 0 -- -- 87
2019-01-30 11:00:00 -0.1 31 Noroeste 46 Oeste 0 -- -- 89
2019-01-30 10:00:00 -0.6 32 Oeste 42 Oeste 0 -- -- 91
2019-01-30 09:00:00 -1.2 21 Noroeste 34 Oeste 0 -- -- 93
2019-01-30 08:00:00 -0.7 22 Noroeste 39 Oeste 0 -- -- 93
2019-01-30 07:00:00 -0.9 23 Noroeste 33 Oeste 0 -- -- 93
2019-01-30 06:00:00 -0.8 18 Noroeste 40 Noroeste 0 -- -- 93
2019-01-30 05:00:00 -0.4 25 Noroeste 41 Noroeste 0 -- -- 93
2019-01-30 04:00:00 0.1 28 Noroeste 45 Noroeste 0 -- -- 93
2019-01-30 03:00:00 0.5 30 Noroeste 39 Noroeste 0 -- -- 92
2019-01-30 02:00:00 1 30 Noroeste 42 Oeste 0 -- -- 90
2019-01-30 01:00:00 1.5 29 Noroeste 52 Noroeste 0 -- -- 83
2019-01-30 00:00:00 1.5 27 Noroeste 42 Oeste 0 -- -- 83
2019-01-29 23:00:00 1.3 20 Oeste 33 Oeste 0 -- -- 85
2019-01-29 22:00:00 1.5 18 Oeste 33 Oeste 0 -- -- 87
2019-01-29 21:00:00 1.9 19 Oeste 29 Noroeste 0 -- -- 88
2019-01-29 20:00:00 3 24 Noroeste 45 Oeste 0 -- -- 87
2019-01-29 19:00:00 3.8 33 Noroeste 50 Noroeste 0 -- -- 89
2019-01-29 18:00:00 4.2 38 Noroeste 58 Oeste 0 -- -- 93
2019-01-29 17:00:00 4.3 40 Oeste 70 Oeste 0 -- -- 95
2019-01-29 16:00:00 4.3 41 Oeste 68 Oeste 0.2 -- -- 93
2019-01-29 15:00:00 4 33 Oeste 54 Oeste 0 -- -- 92
2019-01-29 14:00:00 3.8 40 Oeste 64 Oeste 0 -- -- 93
2019-01-29 13:00:00 3.7 45 Oeste 65 Noroeste 0 -- -- 93
2019-01-29 12:00:00 3.3 37 Oeste 58 Oeste 0 -- -- 94
2019-01-29 11:00:00 3.2 35 Oeste 53 Noroeste 0 -- -- 94
2019-01-29 10:00:00 1.2 36 Oeste 61 Oeste 0 -- -- 96
2019-01-29 09:00:00 0.8 35 Oeste 56 Oeste 0 -- -- 95
2019-01-29 08:00:00 0.2 33 Oeste 49 Noroeste 0 -- -- 95
2019-01-29 07:00:00 0.1 32 Noroeste 44 Oeste 0 -- -- 95
2019-01-29 06:00:00 0.1 31 Oeste 44 Noroeste 0 -- -- 93
2019-01-29 05:00:00 0 30 Noroeste 43 Oeste 0 -- -- 91
2019-01-29 04:00:00 0 24 Noroeste 36 Noroeste 0 -- -- 89
2019-01-29 03:00:00 -0.5 20 Oeste 27 Oeste 0 -- -- 89
2019-01-29 02:00:00 -0.5 20 Oeste 29 Oeste 0 -- -- 89
2019-01-29 01:00:00 -0.3 22 Noroeste 27 Noroeste 0 -- -- 88
2019-01-29 00:00:00 -0.3 15 Noroeste 31 Noroeste 0 -- -- 87
2019-01-28 23:00:00 0.8 19 Noroeste 31 Noroeste 0 -- -- 86
2019-01-28 22:00:00 1.3 24 Noroeste 31 Noroeste 0 -- -- 86
2019-01-28 21:00:00 1.8 20 Noroeste 30 Noroeste 0 -- -- 87
2019-01-28 20:00:00 2.9 21 Noroeste 29 Noroeste 0 -- -- 83
2019-01-28 19:00:00 4 23 Norte 30 Noroeste 0 -- -- 80
2019-01-28 18:00:00 5.6 22 Norte 54 Noroeste 0 -- -- 75
2019-01-28 17:00:00 7 36 Noroeste 58 Noroeste 0 -- -- 67
2019-01-28 16:00:00 7.6 41 Noroeste 60 Noroeste 0 -- -- 70
2019-01-28 15:00:00 5.6 39 Noroeste 68 Oeste 0 -- -- 78
2019-01-28 14:00:00 5.9 45 Noroeste 65 Noroeste 0 -- -- 75
2019-01-28 13:00:00 3.7 39 Noroeste 61 Oeste 0 -- -- 87
2019-01-28 12:00:00 2.4 42 Oeste 65 Oeste 0 -- -- 92
2019-01-28 11:00:00 2.1 41 Oeste 58 Oeste 0 -- -- 94
2019-01-28 10:00:00 0.9 40 Oeste 58 Oeste 0 -- -- 96
2019-01-28 09:00:00 0.6 37 Oeste 56 Oeste 0 -- -- 94
2019-01-28 08:00:00 0.5 37 Oeste 50 Oeste 0 -- -- 90
2019-01-28 07:00:00 0.3 33 Oeste 53 Oeste 0 -- -- 86
2019-01-28 06:00:00 0.1 37 Noroeste 54 Oeste 0 -- -- 87
2019-01-28 05:00:00 0.2 34 Oeste 52 Oeste 0 -- -- 84
2019-01-28 04:00:00 -0.2 32 Noroeste 48 Noroeste 0 -- -- 85
2019-01-28 03:00:00 -0.5 29 Noroeste 54 Oeste 0 -- -- 86
2019-01-28 02:00:00 -0.2 29 Oeste 47 Oeste 0 -- -- 88
2019-01-28 01:00:00 0.1 37 Oeste 46 Oeste 0 -- -- 85
2019-01-28 00:00:00 -0.1 22 Noroeste 36 Noroeste 0 -- -- 84
2019-01-27 23:00:00 -0.1 24 Noroeste 30 Oeste 0 -- -- 78
2019-01-27 22:00:00 0.3 23 Noroeste 29 Noroeste 0 -- -- 81
2019-01-27 21:00:00 0.6 20 Noroeste 27 Noroeste 0 -- -- 84
2019-01-27 20:00:00 1.7 19 Noroeste 35 Noroeste 0 -- -- 73
2019-01-27 19:00:00 3.5 24 Noroeste 45 Noroeste 0 -- -- 66
2019-01-27 18:00:00 4.4 35 Noroeste 54 Noroeste 0 -- -- 61
2019-01-27 17:00:00 5.7 36 Noroeste 53 Noroeste 0 -- -- 61
2019-01-27 16:00:00 5.2 39 Noroeste 57 Noroeste 0 -- -- 59
2019-01-27 15:00:00 5 36 Noroeste 53 Noroeste 0 -- -- 62
2019-01-27 14:00:00 4.5 36 Noroeste 56 Noroeste 0 -- -- 66
2019-01-27 13:00:00 5.8 36 Noroeste 53 Noroeste 0 -- -- 61
2019-01-27 12:00:00 4.4 34 Noroeste 51 Noroeste 0 -- -- 76
2019-01-27 11:00:00 3.4 31 Noroeste 46 Noroeste 0 -- -- 81
2019-01-27 10:00:00 1.5 33 Noroeste 47 Noroeste 0 -- -- 89
2019-01-27 09:00:00 0.8 31 Noroeste 52 Noroeste 0 -- -- 94
2019-01-27 08:00:00 1.7 37 Noroeste 51 Noroeste 0 -- -- 93
2019-01-27 07:00:00 2.3 35 Oeste 50 Oeste 0 -- -- 90
2019-01-27 06:00:00 2.6 34 Oeste 48 Oeste 0 -- -- 89
2019-01-27 05:00:00 3.1 31 Oeste 45 Oeste 0 -- -- 86
2019-01-27 04:00:00 3.6 23 Oeste 42 Oeste 0 -- -- 82
2019-01-27 03:00:00 4.2 22 Noroeste 33 Noroeste 0 -- -- 78
2019-01-27 02:00:00 4.7 24 Oeste 44 Oeste 0 -- -- 72
2019-01-27 01:00:00 4.5 16 Oeste 27 Oeste 0 -- -- 71
2019-01-27 00:00:00 4.1 19 Noroeste 31 Oeste 0 -- -- 69
2019-01-26 23:00:00 5.9 22 Noroeste 35 Oeste 0 -- -- 63
2019-01-26 22:00:00 6 21 Oeste 33 Oeste 0 -- -- 60
2019-01-26 21:00:00 5.9 17 Oeste 25 Oeste 0 -- -- 65
2019-01-26 20:00:00 3.8 10 Noroeste 15 Noroeste 0 -- -- 77
2019-01-26 19:00:00 5.1 13 Noroeste 16 Noroeste 0 -- -- 68
2019-01-26 18:00:00 8.8 14 Noroeste 25 Oeste 0 -- -- 47
2019-01-26 17:00:00 10.9 18 Noroeste 28 Noroeste 0 -- -- 42
2019-01-26 16:00:00 11.5 22 Noroeste 35 Noroeste 0 -- -- 40
2019-01-26 15:00:00 11.7 15 Noroeste 21 Noroeste 0 -- -- 50
2019-01-26 14:00:00 9.8 11 Norte 16 Noroeste 0 -- -- 66
2019-01-26 13:00:00 9.1 11 Noroeste 17 Oeste 0 -- -- 69
2019-01-26 12:00:00 8 11 Noroeste 19 Noroeste 0 -- -- 72
2019-01-26 11:00:00 6.6 10 Noroeste 14 Noroeste 0 -- -- 74
2019-01-26 10:00:00 4.9 8 Oeste 17 Oeste 0 -- -- 78
2019-01-26 09:00:00 2 12 Oeste 17 Oeste 0 -- -- 88
2019-01-26 08:00:00 1.4 13 Oeste 19 Oeste 0 -- -- 88
2019-01-26 07:00:00 1.8 18 Oeste 22 Oeste 0 -- -- 87
2019-01-26 06:00:00 1.6 15 Oeste 23 Oeste 0 -- -- 85
2019-01-26 05:00:00 1.8 15 Oeste 21 Oeste 0 -- -- 86
2019-01-26 04:00:00 1.6 16 Oeste 26 Oeste 0 -- -- 88
2019-01-26 03:00:00 1 17 Oeste 21 Oeste 0 -- -- 93
2019-01-26 02:00:00 0.9 15 Oeste 21 Oeste 0 -- -- 90
2019-01-26 01:00:00 1 15 Oeste 23 Oeste 0 -- -- 89
2019-01-26 00:00:00 2.2 18 Oeste 23 Oeste 0 -- -- 88
2019-01-25 23:00:00 1.5 12 Oeste 20 Oeste 0 -- -- 91
2019-01-25 22:00:00 2.1 14 Oeste 28 Oeste 0 -- -- 89
2019-01-25 21:00:00 2.3 13 Oeste 23 Noroeste 0 -- -- 88
2019-01-25 20:00:00 3 16 Noroeste 26 Noroeste 0 -- -- 86
2019-01-25 19:00:00 3.7 14 Noroeste 32 Noroeste 0 -- -- 84
2019-01-25 18:00:00 5.2 17 Noroeste 39 Noroeste 0 -- -- 80
2019-01-25 17:00:00 6.2 27 Noroeste 39 Noroeste 0 -- -- 78
2019-01-25 16:00:00 7.6 29 Noroeste 44 Noroeste 0 -- -- 72
2019-01-25 15:00:00 7.7 30 Noroeste 40 Noroeste 0 -- -- 73
2019-01-25 14:00:00 6.3 26 Noroeste 39 Noroeste 0 -- -- 81
2019-01-25 13:00:00 6.7 31 Noroeste 45 Noroeste 0 -- -- 82
2019-01-25 12:00:00 5.3 26 Noroeste 43 Noroeste 0 -- -- 87
2019-01-25 11:00:00 5.9 33 Noroeste 44 Noroeste 0 -- -- 88
2019-01-25 10:00:00 4.9 21 Noroeste 31 Noroeste 0 -- -- 92
2019-01-25 09:00:00 4 23 Noroeste 40 Noroeste 0 -- -- 94
2019-01-25 08:00:00 4.2 27 Noroeste 43 Noroeste 0 -- -- 94
2019-01-25 07:00:00 4.1 28 Noroeste 40 Noroeste 0 -- -- 95
2019-01-25 06:00:00 4.3 28 Noroeste 44 Noroeste 0 -- -- 94
2019-01-25 05:00:00 4.1 36 Noroeste 52 Noroeste 0 -- -- 94
2019-01-25 04:00:00 4.3 34 Norte 48 Noroeste 0 -- -- 92
2019-01-25 03:00:00 4.7 27 Noroeste 40 Noroeste 0 -- -- 93
2019-01-25 02:00:00 4.9 22 Noroeste 45 Noroeste 0 -- -- 94
2019-01-25 01:00:00 4.9 29 Noroeste 40 Noroeste 0 -- -- 94
2019-01-25 00:00:00 5 21 Noroeste 33 Noroeste 0 -- -- 95
2019-01-24 23:00:00 5.1 22 Noroeste 36 Noroeste 0 -- -- 94
2019-01-24 22:00:00 5.3 21 Noroeste 36 Noroeste 0 -- -- 93
2019-01-24 21:00:00 5.3 22 Noroeste 32 Noroeste 0 -- -- 93
2019-01-24 20:00:00 5.3 19 Noroeste 34 Noroeste 0 -- -- 93
2019-01-24 19:00:00 5.4 22 Noroeste 37 Noroeste 0 -- -- 91
2019-01-24 18:00:00 5.8 26 Noroeste 40 Noroeste 0 -- -- 89
2019-01-24 17:00:00 5.9 29 Noroeste 40 Noroeste 0 -- -- 90
2019-01-24 16:00:00 6 27 Noroeste 42 Noroeste 0 -- -- 91
2019-01-24 15:00:00 5.8 28 Norte 44 Noroeste 0.2 -- -- 94
2019-01-24 14:00:00 5.5 23 Noroeste 34 Noroeste 0 -- -- 97
2019-01-24 13:00:00 5.7 25 Noroeste 39 Noroeste 0 -- -- 97
2019-01-24 12:00:00 5.2 31 Noroeste 51 Noroeste 0.4 -- -- 98
2019-01-24 11:00:00 4.2 27 Noroeste 38 Noroeste 1.6 -- -- 98
2019-01-24 10:00:00 3.8 24 Noroeste 37 Noroeste 0.6 -- -- 98
2019-01-24 09:00:00 3.7 24 Noroeste 39 Noroeste 0.2 -- -- 98
2019-01-24 08:00:00 3.8 29 Noroeste 49 Noroeste 0.2 -- -- 98
2019-01-24 07:00:00 3.6 26 Noroeste 42 Oeste 0 -- -- 98
2019-01-24 06:00:00 3.4 31 Noroeste 49 Noroeste 0 -- -- 97
2019-01-24 05:00:00 3.6 32 Noroeste 43 Noroeste 0.2 -- -- 96
2019-01-24 04:00:00 3.9 30 Noroeste 46 Noroeste 0 -- -- 95
2019-01-24 03:00:00 4.1 35 Noroeste 51 Noroeste 0.2 -- -- 94
2019-01-24 02:00:00 4 30 Noroeste 39 Noroeste 0 -- -- 95
2019-01-24 01:00:00 4 21 Noroeste 33 Noroeste 0 -- -- 94
2019-01-24 00:00:00 4 24 Noroeste 40 Noroeste 0 -- -- 94
2019-01-23 23:00:00 4.4 29 Noroeste 47 Noroeste 0 -- -- 91
2019-01-23 22:00:00 5.1 32 Noroeste 50 Noroeste 0 -- -- 87
2019-01-23 21:00:00 5.2 28 Noroeste 43 Noroeste 0 -- -- 87
2019-01-23 20:00:00 5.5 29 Noroeste 41 Noroeste 0 -- -- 87
2019-01-23 19:00:00 6.1 33 Noroeste 50 Noroeste 0 -- -- 85
2019-01-23 18:00:00 6.2 31 Noroeste 51 Noroeste 0.2 -- -- 87
2019-01-23 17:00:00 6 35 Noroeste 58 Noroeste 0 -- -- 89
2019-01-23 16:00:00 6.4 36 Noroeste 61 Noroeste 0 -- -- 85
2019-01-23 15:00:00 6.2 40 Noroeste 57 Noroeste 0 -- -- 84
2019-01-23 14:00:00 5.3 36 Noroeste 57 Noroeste 0.2 -- -- 92
2019-01-23 13:00:00 4.6 32 Noroeste 52 Oeste 0 -- -- 96
2019-01-23 12:00:00 3.8 41 Noroeste 69 Noroeste 0 -- -- 96
2019-01-23 11:00:00 3.4 40 Noroeste 60 Oeste 0 -- -- 97
2019-01-23 10:00:00 3 41 Oeste 59 Oeste 0 -- -- 97
2019-01-23 09:00:00 2.6 37 Noroeste 61 Noroeste 0.2 -- -- 97
2019-01-23 08:00:00 2.2 43 Noroeste 64 Noroeste 0 -- -- 97
2019-01-23 07:00:00 1.9 43 Noroeste 58 Noroeste 0 -- -- 97
2019-01-23 06:00:00 1.7 40 Noroeste 60 Oeste 0 -- -- 97
2019-01-23 05:00:00 1.7 38 Noroeste 54 Noroeste 0.2 -- -- 97
2019-01-23 04:00:00 1.6 39 Noroeste 62 Noroeste 0 -- -- 96
2019-01-23 03:00:00 1.5 35 Noroeste 58 Oeste 0 -- -- 96
2019-01-23 02:00:00 1.4 39 Noroeste 55 Noroeste 0 -- -- 96
2019-01-23 01:00:00 1.4 36 Noroeste 51 Oeste 0 -- -- 96
2019-01-23 00:00:00 1.2 30 Noroeste 53 Noroeste 0 -- -- 96
2019-01-22 23:00:00 1.1 30 Noroeste 44 Oeste 0.2 -- -- 97
2019-01-22 22:00:00 1.1 28 Noroeste 46 Oeste 0 -- -- 98
2019-01-22 21:00:00 1 25 Noroeste 33 Noroeste 0 -- -- 98
2019-01-22 20:00:00 1 18 Noroeste 33 Noroeste 0 -- -- 98
2019-01-22 19:00:00 0.8 19 Noroeste 30 Noroeste 0.2 -- -- 98
2019-01-22 18:00:00 0.5 18 Noroeste 30 Noroeste 0.2 -- -- 98
2019-01-22 17:00:00 0.1 21 Noroeste 36 Noroeste 0 -- -- 98
2019-01-22 16:00:00 -0.1 22 Oeste 44 Oeste 0.2 -- -- 97
2019-01-22 15:00:00 -0.2 30 Noroeste 51 Oeste 0.2 -- -- 96
2019-01-22 14:00:00 -0.2 30 Oeste 44 Oeste 0.2 -- -- 96
2019-01-22 13:00:00 -0.1 32 Oeste 46 Oeste 0 -- -- 92
2019-01-22 12:00:00 0.7 30 Noroeste 43 Oeste 0 -- -- 84
2019-01-22 11:00:00 0.6 23 Noroeste 34 Noroeste 0 -- -- 80
2019-01-22 10:00:00 0 24 Noroeste 32 Oeste 0 -- -- 84
2019-01-22 09:00:00 -0.2 19 Noroeste 27 Noroeste 0 -- -- 85
2019-01-22 08:00:00 -0.5 21 Noroeste 30 Noroeste 0 -- -- 89
2019-01-22 07:00:00 -0.8 19 Noroeste 26 Noroeste 0 -- -- 86
2019-01-22 06:00:00 -1.2 13 Noroeste 23 Noroeste 0 -- -- 86
2019-01-22 05:00:00 -1.5 14 Noroeste 22 Noroeste 0 -- -- 87
2019-01-22 04:00:00 -1 16 Noroeste 25 Noroeste 0 -- -- 84
2019-01-22 03:00:00 -0.9 17 Noroeste 23 Oeste 0 -- -- 85
2019-01-22 02:00:00 -0.9 15 Oeste 21 Oeste 0 -- -- 85
2019-01-22 01:00:00 -1.4 12 Oeste 18 Oeste 0 -- -- 87
2019-01-22 00:00:00 -0.9 13 Noroeste 19 Oeste 0 -- -- 86
2019-01-21 23:00:00 -1.1 13 Oeste 24 Oeste 0 -- -- 87
2019-01-21 22:00:00 -1.4 15 Oeste 19 Noroeste 0 -- -- 87
2019-01-21 21:00:00 -1.3 12 Noroeste 16 Oeste 0 -- -- 86
2019-01-21 20:00:00 -0.7 8 Oeste 24 Norte 0 -- -- 86
2019-01-21 19:00:00 0.3 16 Noroeste 24 Noroeste 0 -- -- 83
2019-01-21 18:00:00 0.9 12 Norte 32 Norte 0 -- -- 77
2019-01-21 17:00:00 2.2 23 Norte 35 Norte 0 -- -- 67
2019-01-21 16:00:00 3.1 27 Noroeste 46 Noroeste 0 -- -- 67
2019-01-21 15:00:00 3.5 23 Noroeste 33 Noroeste 0 -- -- 70
2019-01-21 14:00:00 2.9 23 Noroeste 32 Noroeste 0 -- -- 78
2019-01-21 13:00:00 2.1 14 Oeste 23 Oeste 0 -- -- 85
2019-01-21 12:00:00 0.6 15 Noroeste 27 Norte 0 -- -- 92
2019-01-21 11:00:00 0.2 17 Noroeste 29 Noroeste 0 -- -- 96
2019-01-21 10:00:00 -0.4 19 Noroeste 30 Noroeste 0 -- -- 97
2019-01-21 09:00:00 -0.8 15 Noroeste 28 Noroeste 0 -- -- 97
2019-01-21 08:00:00 -0.7 20 Noroeste 35 Noroeste 0 -- -- 97
2019-01-21 07:00:00 -0.8 19 Noroeste 32 Noroeste 0 -- -- 96
2019-01-21 06:00:00 -0.4 18 Noroeste 31 Noroeste 0 -- -- 96
2019-01-21 05:00:00 -0.4 20 Noroeste 28 Noroeste 0 -- -- 96
2019-01-21 04:00:00 -0.3 18 Noroeste 29 Noroeste 0 -- -- 96
2019-01-21 03:00:00 -0.5 14 Noroeste 24 Noroeste 0 -- -- 96
2019-01-21 02:00:00 -0.1 13 Noroeste 28 Noroeste 0 -- -- 96
2019-01-21 01:00:00 0 19 Noroeste 28 Noroeste 0 -- -- 96
2019-01-21 00:00:00 0 18 Noroeste 27 Oeste 0 -- -- 95
2019-01-20 23:00:00 -0.2 19 Noroeste 27 Noroeste 0 -- -- 95
2019-01-20 22:00:00 -0.1 18 Noroeste 27 Noroeste 0 -- -- 95
2019-01-20 21:00:00 0.2 19 Noroeste 25 Noroeste 0 -- -- 93
2019-01-20 20:00:00 0.5 16 Noroeste 31 Noroeste 0 -- -- 92
2019-01-20 19:00:00 1.7 22 Norte 30 Noroeste 0 -- -- 89
2019-01-20 18:00:00 2.2 23 Norte 37 Norte 0 -- -- 87
2019-01-20 17:00:00 3.4 30 Norte 39 Noroeste 0 -- -- 81
2019-01-20 16:00:00 3.4 25 Noroeste 39 Norte 0 -- -- 85
2019-01-20 15:00:00 3.1 24 Norte 35 Norte 0 -- -- 86
2019-01-20 14:00:00 2.9 21 Norte 38 Norte 0 -- -- 85
2019-01-20 13:00:00 2.4 25 Norte 34 Norte 0 -- -- 89
2019-01-20 12:00:00 3.4 25 Norte 36 Norte 0 -- -- 85
2019-01-20 11:00:00 2.5 21 Norte 30 Norte 0 -- -- 93
2019-01-20 10:00:00 0.5 19 Norte 28 Norte 0 -- -- 98
2019-01-20 09:00:00 0.3 14 Noroeste 22 Noroeste 0 -- -- 98
2019-01-20 08:00:00 0.5 11 Oeste 17 Noroeste 0 -- -- 98
2019-01-20 07:00:00 0.9 8 Noroeste 14 Noroeste 0 -- -- 98
2019-01-20 06:00:00 1.4 10 Norte 25 Norte 0.4 -- -- 98
2019-01-20 05:00:00 1.7 17 Norte 27 Norte 1 -- -- 98
2019-01-20 04:00:00 2.5 16 Norte 24 Norte 1 -- -- 97
2019-01-20 03:00:00 3.1 11 Noroeste 19 Noroeste 0.8 -- -- 97
2019-01-20 02:00:00 3.6 14 Noroeste 26 Oeste 4.4 -- -- 97
2019-01-20 01:00:00 3.6 19 Noroeste 39 Noroeste 4.2 -- -- 96
2019-01-20 00:00:00 4.3 17 Noroeste 29 Noroeste 2.6 -- -- 96
2019-01-19 23:00:00 4.3 20 Noroeste 44 Oeste 0.8 -- -- 96
2019-01-19 22:00:00 4.4 27 Oeste 40 Oeste 0.6 -- -- 97
2019-01-19 21:00:00 3.7 8 Sudoeste 19 Oeste 2 -- -- 98
2019-01-19 20:00:00 3.9 13 Noroeste 42 Oeste 3.2 -- -- 96
2019-01-19 19:00:00 3.6 11 Noroeste 19 Noroeste 2.8 -- -- 95
2019-01-19 18:00:00 1 12 Sur 22 Sur 2.2 -- -- 92
2019-01-19 17:00:00 0.5 8 Sur 14 Sur 0.8 -- -- 94
2019-01-19 16:00:00 1.7 8 Sur 17 Sur 1.6 -- -- 91
2019-01-19 15:00:00 2.2 5 Sur 20 Oeste 0.6 -- -- 91
2019-01-19 14:00:00 3 13 Noroeste 20 Oeste 0.4 -- -- 91
2019-01-19 13:00:00 3.5 7 Oeste 13 Oeste 0 -- -- 79
2019-01-19 12:00:00 3.2 3 Oeste 7 Oeste 0 -- -- 78
2019-01-19 11:00:00 2.5 3 Sudoeste 9 Sudoeste 0 -- -- 82
2019-01-19 10:00:00 0.4 6 Sur 15 Sudoeste 0 -- -- 89
2019-01-19 09:00:00 -0.6 6 Sudoeste 24 Noroeste 0 -- -- 93
2019-01-19 08:00:00 -0.3 13 Noroeste 22 Oeste 0 -- -- 93
2019-01-19 07:00:00 -0.7 8 Oeste 33 Oeste 0 -- -- 93
2019-01-19 06:00:00 -0.2 25 Noroeste 35 Noroeste 0 -- -- 92
2019-01-19 05:00:00 -0.1 18 Noroeste 25 Noroeste 0 -- -- 94
2019-01-19 04:00:00 0 15 Noroeste 23 Noroeste 0 -- -- 94
2019-01-19 03:00:00 0 15 Noroeste 24 Noroeste 0 -- -- 93
2019-01-19 02:00:00 0.1 16 Noroeste 24 Noroeste 0 -- -- 92
2019-01-19 01:00:00 0.1 14 Noroeste 22 Noroeste 0 -- -- 93
2019-01-19 00:00:00 -0.2 20 Noroeste 30 Noroeste 0 -- -- 95